Radar AviationWeather DUATS TFRs Wunderground Accuweather Weather.com

alt : Radar

TAFs

KTOL 170159Z 1702/1724 24006KT P6SM SCT020
   FM170600 24008KT P6SM BKN020
   FM171200 24006KT P6SM BKN035
KJXN 162346Z 1700/1724 25006KT P6SM -SN BKN040
   FM171100 24008KT 6SM -SN OVC035
   FM171700 24013G23KT P6SM SCT050
KFDY 162335Z 1700/1724 25010KT P6SM SCT015
     TEMPO 1700/1704 -SN BKN015
   FM170400 25007KT P6SM OVC015
   FM171200 25010KT P6SM BKN040
KCLE 162335Z 1700/1806 24010KT P6SM OVC045
     TEMPO 1700/1703 -SN BKN020
   FM170300 24008KT P6SM OVC020
   FM171800 24012KT P6SM OVC035
KDTW 162331Z 1700/1806 23007KT 5SM -SHSN BR BKN030
   FM170300 26007KT P6SM BKN030
   FM170900 23004KT P6SM BKN030
   FM171400 24011KT P6SM BKN025
   FM171900 25013G21KT P6SM BKN030
   FM172100 25013G20KT P6SM SCT035 BKN150
KFWA 162331Z 1700/1724 24006KT 6SM -SHSN BKN015
   FM170130 25005KT P6SM SCT050
   FM171100 25005KT 6SM BR BKN035
   FM171600 25009KT P6SM SCT150

METARs

KCLE 170236Z 23009KT 9SM SCT026 M16/M19 A3050 RMK AO2 SNB07E34 P0000 T11561189
KDUH 170235Z AUTO 24005KT 10SM BKN046 M15/M18 A3049 RMK AO2 T11551185
KFWA 170234Z 24009KT 8SM OVC015 M12/M15 A3051 RMK AO2 T11221150
KDTW 170227Z 22008KT 5SM -SN SCT030 OVC050 M13/M16 A3046 RMK AO2 P0000 T11281156 $
KJXN 170156Z 24004KT 8SM CLR M16/M18 A3043 RMK AO2 SLP331 I1000 T11611178
KFDY 170153Z AUTO 23009KT 10SM OVC043 M16/M19 A3049 RMK AO2 SNE0056B21E31 SLP341 P0000 T11561194
KTDZ 170153Z AUTO 23008KT 10SM CLR M17/M20 A3050 RMK AO2 SLP343 T11671200
KTOL 170152Z 23007KT 10SM CLR M17/M19 A3049 RMK AO2 SLP341 T11671189 $

alt : Satellite

alt : TFRs